Time;durP1;ratioP1;P1;durP2;ratioP2;P2;SDS_P1;SDS_P2;PMS_P1;PMS_P2;Temp;Humidity;BMP_temperature;BMP_pressure;BME280_temperature;BME280_humidity;BME280_pressure;Samples;Min_cycle;Max_cycle;Signal;HPM_P1;HPM_P2
2021/11/23 00:00:45;;;;;;;13.13;10.03;;;0.70;99.90;;;1.27;100.00;101338.38;4995185;28;20279;-63
2021/11/23 00:03:17;;;;;;;11.67;10.00;;;0.70;99.90;;;1.34;100.00;101346.66;4994985;28;20274;-63
2021/11/23 00:05:46;;;;;;;9.97;8.30;;;0.60;99.90;;;1.32;100.00;101348.59;4994733;28;20637;-63
2021/11/23 00:08:17;;;;;;;8.87;7.93;;;0.60;99.90;;;1.30;100.00;101341.75;4995057;28;20295;-62
2021/11/23 00:10:47;;;;;;;10.20;8.70;;;0.60;99.90;;;1.21;100.00;101338.91;4994876;28;20299;-62
2021/11/23 00:13:17;;;;;;;9.33;8.27;;;0.60;99.90;;;1.18;100.00;101347.09;4994330;28;20639;-63
2021/11/23 00:15:47;;;;;;;10.53;9.20;;;0.60;99.90;;;1.61;100.00;101346.09;4994555;28;20283;-62
2021/11/23 00:18:16;;;;;;;9.77;8.77;;;0.70;99.90;;;1.61;100.00;101336.31;4994474;28;20206;-62
2021/11/23 00:20:47;;;;;;;15.73;14.13;;;0.80;99.90;;;1.53;100.00;101336.13;4994564;28;20720;-63
2021/11/23 00:23:16;;;;;;;19.93;18.03;;;0.80;99.90;;;1.42;100.00;101336.22;4994143;28;20810;-62
2021/11/23 00:25:45;;;;;;;21.43;19.47;;;0.70;99.90;;;1.30;100.00;101329.31;4994633;28;20203;-63
2021/11/23 00:28:14;;;;;;;13.13;11.73;;;0.70;99.90;;;1.30;100.00;101331.13;4994611;28;20206;-63
2021/11/23 00:30:45;;;;;;;13.17;11.67;;;0.60;99.90;;;1.11;100.00;101318.59;4994672;28;20294;-63
2021/11/23 00:33:16;;;;;;;14.57;11.73;;;0.60;99.90;;;1.18;100.00;101317.91;4994307;28;20180;-63
2021/11/23 00:35:45;;;;;;;12.30;9.27;;;0.60;99.90;;;1.38;100.00;101318.03;4994307;28;20194;-63
2021/11/23 00:38:15;;;;;;;12.63;8.57;;;0.60;99.90;;;1.45;100.00;101316.53;4993938;28;20191;-63
2021/11/23 00:40:44;;;;;;;8.83;7.40;;;0.70;99.90;;;1.48;100.00;101310.97;4994319;28;20207;-63
2021/11/23 00:43:12;;;;;;;8.00;6.67;;;0.70;99.90;;;1.39;100.00;101314.44;4993744;28;20323;-64
2021/11/23 00:45:43;;;;;;;8.27;6.47;;;0.70;99.90;;;1.30;100.00;101325.81;4993645;28;20212;-64
2021/11/23 00:48:12;;;;;;;8.67;7.23;;;0.70;99.90;;;1.24;100.00;101324.53;4993951;28;20194;-63
2021/11/23 00:50:42;;;;;;;8.77;7.40;;;0.70;99.90;;;1.18;100.00;101325.88;4993806;28;20211;-62
2021/11/23 00:53:10;;;;;;;10.00;7.57;;;0.70;99.90;;;1.25;100.00;101339.50;4993776;28;20294;-63
2021/11/23 00:55:38;;;;;;;7.97;6.30;;;0.70;99.90;;;1.40;100.00;101338.19;4994107;28;20286;-63
2021/11/23 00:58:07;;;;;;;7.57;6.30;;;0.70;99.90;;;1.77;100.00;101338.47;4993795;28;20249;-63
2021/11/23 01:00:35;;;;;;;8.83;7.33;;;0.90;99.90;;;1.87;100.00;101344.66;4993909;28;20273;-63
2021/11/23 01:03:05;;;;;;;10.67;8.20;;;1.00;99.90;;;2.02;100.00;101340.66;4993486;28;20689;-63
2021/11/23 01:05:34;;;;;;;8.03;7.20;;;1.20;99.90;;;1.89;100.00;101340.91;4993626;28;20570;-62
2021/11/23 01:08:05;;;;;;;10.40;9.07;;;1.20;99.90;;;1.99;100.00;101341.78;4993716;28;20207;-64
2021/11/23 01:10:33;;;;;;;11.70;10.27;;;1.20;99.90;;;2.05;100.00;101343.88;4993883;28;20266;-64
2021/11/23 01:13:01;;;;;;;10.03;9.13;;;1.20;99.90;;;2.16;100.00;101345.59;4993987;28;20203;-63
2021/11/23 01:15:29;;;;;;;14.87;13.50;;;1.30;99.90;;;2.18;100.00;101333.81;4993630;28;20295;-64
2021/11/23 01:17:58;;;;;;;15.03;11.27;;;1.40;99.90;;;2.26;100.00;101341.97;4993895;28;20228;-63
2021/11/23 01:20:26;;;;;;;10.53;8.57;;;1.40;99.90;;;2.21;100.00;101349.53;4993641;28;20281;-64
2021/11/23 01:22:57;;;;;;;7.87;7.03;;;1.50;99.90;;;2.39;100.00;101347.88;4993500;28;20265;-63
2021/11/23 01:25:27;;;;;;;10.67;9.03;;;1.60;99.90;;;2.43;100.00;101345.78;4993176;28;20271;-63
2021/11/23 01:27:56;;;;;;;8.10;6.97;;;1.60;99.90;;;2.55;100.00;101338.50;4993055;28;20667;-63
2021/11/23 01:30:24;;;;;;;6.20;5.30;;;1.70;99.90;;;2.49;100.00;101347.88;4993022;28;20302;-63
2021/11/23 01:32:52;;;;;;;5.17;4.67;;;1.70;99.90;;;2.57;100.00;101339.22;4993276;28;20298;-64
2021/11/23 01:35:21;;;;;;;6.40;5.13;;;1.80;99.90;;;2.47;100.00;101336.53;4993141;28;20706;-63
2021/11/23 01:37:49;;;;;;;5.87;4.90;;;1.80;99.90;;;2.63;100.00;101330.66;4992722;28;20294;-63
2021/11/23 01:40:18;;;;;;;5.37;4.63;;;1.80;99.90;;;2.44;100.00;101324.34;4993103;28;20231;-63
2021/11/23 01:42:48;;;;;;;6.43;4.67;;;1.80;99.90;;;2.40;100.00;101330.09;4992790;28;20210;-62
2021/11/23 01:45:17;;;;;;;5.77;5.17;;;1.70;99.90;;;2.31;100.00;101329.13;4992771;28;20188;-63
2021/11/23 01:47:46;;;;;;;6.30;5.50;;;1.70;99.90;;;2.21;100.00;101332.72;4993004;28;20290;-63
2021/11/23 01:50:17;;;;;;;6.10;5.50;;;1.70;99.90;;;2.25;100.00;101328.81;4992780;28;20204;-63
2021/11/23 01:52:47;;;;;;;6.30;5.70;;;1.60;99.90;;;2.21;100.00;101327.41;4992930;28;20275;-63
2021/11/23 01:55:16;;;;;;;7.77;6.77;;;1.60;99.90;;;2.19;100.00;101334.69;4992712;28;20290;-62
2021/11/23 01:57:45;;;;;;;9.23;6.97;;;1.60;99.90;;;2.24;100.00;101324.47;4992995;28;20281;-63
2021/11/23 02:00:15;;;;;;;7.83;7.13;;;1.60;99.90;;;2.25;100.00;101323.50;4993025;28;20656;-63
2021/11/23 02:02:44;;;;;;;6.30;5.70;;;1.60;99.90;;;2.37;100.00;101322.38;4993912;28;20192;-63
2021/11/23 02:05:13;;;;;;;6.50;5.80;;;1.70;99.90;;;2.48;100.00;101309.81;4993661;28;20290;-63
2021/11/23 02:07:42;;;;;;;6.27;4.57;;;1.70;99.90;;;2.65;100.00;101305.63;4993276;28;20296;-62
2021/11/23 02:10:12;;;;;;;6.17;4.80;;;1.80;99.90;;;2.68;100.00;101304.47;4993278;28;20237;-63
2021/11/23 02:12:41;;;;;;;7.40;5.00;;;1.80;99.90;;;2.54;100.00;101294.28;4993963;28;20290;-63
2021/11/23 02:15:13;;;;;;;5.70;4.47;;;1.80;99.90;;;2.45;100.00;101304.75;4993288;28;20239;-64
2021/11/23 02:17:44;;;;;;;5.27;4.70;;;1.80;99.90;;;2.38;100.00;101298.31;4993213;28;20278;-63
2021/11/23 02:20:18;;;;;;;5.53;4.37;;;1.70;99.90;;;2.34;100.00;101302.25;4993660;28;20246;-63
2021/11/23 02:22:48;;;;;;;5.73;5.13;;;1.80;99.90;;;2.53;100.00;101303.22;4993688;28;20220;-63
2021/11/23 02:25:18;;;;;;;6.57;4.97;;;1.80;99.90;;;2.55;100.00;101303.94;4994581;28;20234;-63
2021/11/23 02:27:49;;;;;;;6.17;5.07;;;1.90;99.90;;;2.55;100.00;101298.63;4993464;28;20650;-63
2021/11/23 02:30:17;;;;;;;5.93;4.57;;;1.90;99.90;;;2.58;100.00;101300.97;4993251;28;20183;-63
2021/11/23 02:32:52;;;;;;;5.73;4.80;;;1.90;99.90;;;2.40;100.00;101300.84;4992590;28;20622;-63
2021/11/23 02:35:24;;;;;;;5.60;5.10;;;1.80;99.90;;;2.59;100.00;101305.34;4993030;28;20183;-63
2021/11/23 02:37:57;;;;;;;6.13;5.40;;;1.80;99.90;;;2.32;100.00;101312.16;4992752;28;20190;-64
2021/11/23 02:40:26;;;;;;;5.73;5.13;;;1.80;99.90;;;2.25;100.00;101311.03;4992732;28;20211;-64
2021/11/23 02:42:54;;;;;;;5.90;5.10;;;1.70;99.90;;;2.11;100.00;101308.81;4992591;28;20206;-63
2021/11/23 02:45:27;;;;;;;7.00;4.90;;;1.70;99.90;;;2.13;100.00;101304.16;4992687;28;20220;-63
2021/11/23 02:47:58;;;;;;;5.47;4.97;;;1.60;99.90;;;2.09;100.00;101302.78;4992472;28;20192;-63
2021/11/23 02:50:28;;;;;;;6.27;5.30;;;1.60;99.90;;;2.25;100.00;101307.56;4992420;28;20286;-62
2021/11/23 02:52:58;;;;;;;5.80;5.10;;;1.50;99.90;;;2.27;100.00;101303.78;4992174;28;20294;-63
2021/11/23 02:55:32;;;;;;;5.60;5.03;;;1.60;99.90;;;2.23;100.00;101310.34;4992198;28;20203;-63
2021/11/23 02:58:02;;;;;;;9.37;5.40;;;1.70;99.90;;;2.19;100.00;101313.41;4992394;28;20291;-63
2021/11/23 03:00:32;;;;;;;6.50;5.50;;;1.60;99.90;;;2.29;100.00;101307.13;4991960;28;20253;-63
2021/11/23 03:03:00;;;;;;;6.73;5.57;;;1.70;99.90;;;2.40;100.00;101307.00;4992114;28;20243;-62
2021/11/23 03:05:30;;;;;;;7.90;5.53;;;1.70;99.90;;;2.62;100.00;101310.38;4992460;28;20831;-63
2021/11/23 03:07:58;;;;;;;6.27;5.67;;;1.80;99.90;;;2.53;100.00;101303.22;4994231;28;20229;-63
2021/11/23 03:10:31;;;;;;;7.00;5.07;;;1.80;99.90;;;2.58;100.00;101303.66;4995575;28;20238;-62
2021/11/23 03:13:01;;;;;;;7.07;5.23;;;1.90;99.90;;;2.48;100.00;101315.13;4995895;28;20283;-61
2021/11/23 03:15:32;;;;;;;6.60;5.40;;;1.80;99.90;;;2.38;100.00;101318.75;4995536;28;20261;-63
2021/11/23 03:18:00;;;;;;;6.47;5.87;;;1.80;99.90;;;2.40;100.00;101311.50;4995912;28;20282;-63
2021/11/23 03:20:31;;;;;;;6.73;6.00;;;1.80;99.90;;;2.41;100.00;101310.50;4995417;28;20224;-63
2021/11/23 03:22:59;;;;;;;8.13;5.63;;;1.70;99.90;;;2.19;100.00;101316.91;4995601;28;20222;-63
2021/11/23 03:25:28;;;;;;;7.23;5.30;;;1.70;99.90;;;2.19;100.00;101303.63;4995614;28;20309;-62
2021/11/23 03:27:56;;;;;;;7.43;6.00;;;1.60;99.90;;;2.19;100.00;101314.25;4995634;28;20238;-63
2021/11/23 03:30:30;;;;;;;7.27;6.13;;;1.60;99.90;;;2.10;100.00;101304.44;4995554;28;20298;-62
2021/11/23 03:33:02;;;;;;;6.53;5.40;;;1.60;99.90;;;2.14;100.00;101305.00;4995541;28;20206;-63
2021/11/23 03:35:35;;;;;;;7.90;6.00;;;1.50;99.90;;;2.07;100.00;101299.41;4995205;28;20184;-62
2021/11/23 03:38:05;;;;;;;7.47;5.90;;;1.50;99.90;;;2.05;100.00;101290.72;4995171;28;20201;-63
2021/11/23 03:40:37;;;;;;;7.40;5.80;;;1.50;99.90;;;2.16;100.00;101277.34;4995535;28;20621;-63
2021/11/23 03:43:07;;;;;;;7.17;5.77;;;1.50;99.90;;;2.05;100.00;101285.41;4995408;28;20283;-63
2021/11/23 03:45:36;;;;;;;7.40;6.00;;;1.50;99.90;;;2.11;100.00;101284.03;4995160;28;20202;-63
2021/11/23 03:48:05;;;;;;;8.17;5.90;;;1.50;99.90;;;2.13;100.00;101290.06;4995398;28;20286;-63
2021/11/23 03:50:35;;;;;;;9.27;5.73;;;1.50;99.90;;;2.13;100.00;101290.06;4994884;28;20286;-63
2021/11/23 03:53:04;;;;;;;7.60;6.10;;;1.60;99.90;;;2.40;100.00;101279.59;4995323;28;20202;-63
2021/11/23 03:55:35;;;;;;;7.57;6.20;;;1.70;99.90;;;2.17;100.00;101288.78;4995241;28;20290;-64
2021/11/23 03:58:05;;;;;;;6.93;5.80;;;1.70;99.90;;;2.22;100.00;101292.72;4994922;28;20640;-64
2021/11/23 04:00:34;;;;;;;8.23;6.40;;;1.70;99.90;;;2.33;100.00;101284.59;4994740;28;20709;-64
2021/11/23 04:03:02;;;;;;;7.07;6.03;;;1.60;99.90;;;2.10;100.00;101296.47;4994982;28;20262;-63
2021/11/23 04:05:30;;;;;;;7.50;5.90;;;1.60;99.90;;;2.24;100.00;101296.09;4994783;28;20306;-63
2021/11/23 04:08:00;;;;;;;7.37;5.87;;;1.60;99.90;;;2.20;100.00;101302.63;4994617;28;20791;-64
2021/11/23 04:10:28;;;;;;;7.63;6.23;;;1.60;99.90;;;2.32;100.00;101293.56;4994690;28;20615;-61
2021/11/23 04:12:57;;;;;;;10.03;6.90;;;1.60;99.90;;;2.25;100.00;101289.78;4994857;28;20200;-65
2021/11/23 04:15:25;;;;;;;8.83;6.37;;;1.60;99.90;;;2.17;100.00;101289.63;4994301;28;20746;-63
2021/11/23 04:17:53;;;;;;;9.20;6.33;;;1.60;99.90;;;2.27;100.00;101287.81;4994452;28;20239;-63
2021/11/23 04:20:23;;;;;;;9.97;7.17;;;1.60;99.90;;;2.10;100.00;101290.31;4994449;28;20615;-63
2021/11/23 04:22:52;;;;;;;7.17;5.93;;;1.50;99.90;;;2.03;100.00;101287.38;4994828;28;20632;-63
2021/11/23 04:25:22;;;;;;;7.37;5.93;;;1.50;99.90;;;2.12;100.00;101273.25;4994582;28;20298;-63
2021/11/23 04:27:52;;;;;;;10.53;6.73;;;1.50;99.90;;;2.12;100.00;101275.06;4994247;28;20620;-62
2021/11/23 04:30:20;;;;;;;7.57;5.90;;;1.50;99.90;;;2.27;100.00;101273.69;4994617;28;20306;-64
2021/11/23 04:32:49;;;;;;;10.00;6.57;;;1.50;99.90;;;2.10;100.00;101271.72;4994536;28;20230;-63
2021/11/23 04:35:18;;;;;;;10.80;7.30;;;1.40;99.90;;;2.05;100.00;101277.44;4993946;28;20290;-63
2021/11/23 04:37:47;;;;;;;7.07;6.10;;;1.40;99.90;;;2.04;100.00;101280.25;4994178;28;20238;-63
2021/11/23 04:40:18;;;;;;;6.63;5.67;;;1.40;99.90;;;2.07;100.00;101283.47;4994225;28;20290;-63
2021/11/23 04:42:48;;;;;;;7.20;5.73;;;1.40;99.90;;;2.00;100.00;101282.34;4994330;28;20187;-62
2021/11/23 04:45:17;;;;;;;7.03;6.33;;;1.40;99.90;;;2.04;100.00;101280.25;4994233;28;20296;-63
2021/11/23 04:47:46;;;;;;;6.90;6.00;;;1.40;99.90;;;2.04;100.00;101278.44;4994244;28;20220;-63
2021/11/23 04:50:14;;;;;;;8.80;6.13;;;1.40;99.90;;;1.94;100.00;101276.72;4994119;28;20298;-63
2021/11/23 04:52:43;;;;;;;9.23;6.07;;;1.30;99.90;;;1.97;100.00;101281.75;4993817;28;20296;-63
2021/11/23 04:55:12;;;;;;;9.20;6.70;;;1.40;99.90;;;2.02;100.00;101277.72;4994885;28;20200;-63
2021/11/23 04:57:41;;;;;;;7.50;5.90;;;1.40;99.90;;;2.19;100.00;101273.53;4993994;28;20207;-63
2021/11/23 05:00:15;;;;;;;7.03;6.03;;;1.50;99.90;;;2.09;100.00;101273.53;4994037;28;20282;-63
2021/11/23 05:02:46;;;;;;;7.33;6.17;;;1.50;99.90;;;1.94;100.00;101266.97;4994025;28;20208;-61
2021/11/23 05:05:16;;;;;;;9.73;7.13;;;1.50;99.90;;;2.02;100.00;101271.56;4993749;28;20299;-63
2021/11/23 05:07:45;;;;;;;8.23;6.50;;;1.50;99.90;;;1.99;100.00;101275.34;4993705;28;20262;-63
2021/11/23 05:10:15;;;;;;;9.10;6.80;;;1.40;99.90;;;2.15;100.00;101269.47;4993714;28;20287;-63
2021/11/23 05:12:44;;;;;;;7.73;6.13;;;1.40;99.90;;;2.17;100.00;101262.22;4993645;28;20286;-63
2021/11/23 05:15:14;;;;;;;8.73;6.03;;;1.50;99.90;;;2.14;100.00;101268.66;4993098;28;20266;-65
2021/11/23 05:17:42;;;;;;;6.53;5.80;;;1.50;99.90;;;1.99;100.00;101270.03;4993207;28;20606;-62
2021/11/23 05:20:12;;;;;;;7.97;6.37;;;1.40;99.90;;;2.05;100.00;101266.81;4993375;28;20306;-62
2021/11/23 05:22:41;;;;;;;9.13;6.40;;;1.40;99.90;;;2.21;100.00;101267.13;4993051;28;20318;-63
2021/11/23 05:25:11;;;;;;;7.60;6.07;;;1.50;99.90;;;1.99;100.00;101270.03;4992903;28;20660;-63
2021/11/23 05:27:41;;;;;;;7.53;6.03;;;1.40;99.90;;;2.04;100.00;101274.94;4992965;28;20794;-63
2021/11/23 05:30:12;;;;;;;7.20;6.20;;;1.40;99.90;;;2.01;100.00;101277.88;4992485;28;20273;-63
2021/11/23 05:32:43;;;;;;;8.33;5.93;;;1.50;99.90;;;2.16;100.00;101274.69;4993310;28;20258;-63
2021/11/23 05:35:13;;;;;;;9.07;6.70;;;1.50;99.90;;;2.32;100.00;101279.44;4993193;28;20230;-62
2021/11/23 05:37:42;;;;;;;7.77;5.53;;;1.60;99.90;;;2.27;100.00;101268.38;4993058;28;20239;-63
2021/11/23 05:40:12;;;;;;;8.80;6.33;;;1.60;99.90;;;2.44;100.00;101267.69;4993083;28;20203;-62
2021/11/23 05:42:41;;;;;;;10.30;7.00;;;1.70;99.90;;;2.62;100.00;101257.19;4993359;28;20744;-63
2021/11/23 05:45:12;;;;;;;8.73;6.43;;;1.80;99.90;;;2.66;100.00;101264.72;4992936;28;20298;-63
2021/11/23 05:47:42;;;;;;;8.73;5.83;;;1.90;99.90;;;2.73;100.00;101262.34;4992658;28;20608;-63
2021/11/23 05:50:12;;;;;;;8.37;6.57;;;1.90;99.90;;;2.69;100.00;101259.13;4992914;28;20187;-63
2021/11/23 05:52:40;;;;;;;10.33;6.83;;;1.90;99.90;;;2.61;100.00;101259.00;4993132;28;20760;-62
2021/11/23 05:55:09;;;;;;;7.83;6.50;;;1.90;99.90;;;2.67;100.00;101262.91;4993716;28;20203;-62
2021/11/23 05:57:37;;;;;;;9.70;6.53;;;1.90;99.90;;;2.63;100.00;101261.50;4993774;28;20206;-63
2021/11/23 06:00:08;;;;;;;6.83;6.10;;;2.00;99.90;;;2.78;100.00;101273.38;4993177;28;20663;-62
2021/11/23 06:02:36;;;;;;;8.87;6.53;;;2.10;99.90;;;2.95;100.00;101267.34;4993185;28;20211;-62
2021/11/23 06:05:08;;;;;;;8.80;6.37;;;2.10;99.90;;;3.01;100.00;101269.44;4993399;28;20269;-63
2021/11/23 06:07:36;;;;;;;9.27;6.37;;;2.10;99.90;;;2.91;100.00;101266.78;4993344;28;20232;-62
2021/11/23 06:10:05;;;;;;;9.50;7.00;;;2.20;99.90;;;3.01;100.00;101269.44;4993159;28;20204;-63
2021/11/23 06:12:33;;;;;;;8.17;6.03;;;2.20;99.90;;;2.97;100.00;101276.03;4993380;28;20286;-63
2021/11/23 06:15:03;;;;;;;7.90;6.47;;;2.20;99.90;;;2.99;100.00;101269.59;4993141;28;20239;-62
2021/11/23 06:17:31;;;;;;;9.03;6.87;;;2.20;99.90;;;3.15;100.00;101271.63;4992830;28;20294;-62
2021/11/23 06:19:59;;;;;;;8.70;6.73;;;2.20;99.90;;;3.11;100.00;101270.25;4992724;28;20243;-64
2021/11/23 06:22:29;;;;;;;9.67;8.07;;;2.30;99.90;;;3.07;100.00;101275.03;4992447;28;20268;-62
2021/11/23 06:24:57;;;;;;;10.30;7.70;;;2.40;99.90;;;3.30;100.00;101278.16;4992637;28;20245;-64
2021/11/23 06:27:26;;;;;;;10.83;7.83;;;2.40;99.90;;;3.29;100.00;101276.50;4993053;28;20231;-63
2021/11/23 06:29:54;;;;;;;8.13;6.63;;;2.50;99.90;;;3.49;100.00;101283.41;4993075;28;20646;-63
2021/11/23 06:32:22;;;;;;;7.87;6.13;;;2.60;99.90;;;3.51;100.00;101286.78;4993452;28;20209;-62
2021/11/23 06:34:51;;;;;;;9.00;6.17;;;2.60;99.90;;;3.43;100.00;101286.69;4992591;28;20235;-63
2021/11/23 06:37:19;;;;;;;8.80;6.53;;;2.60;99.90;;;3.40;100.00;101284.31;4992711;28;20203;-63
2021/11/23 06:39:49;;;;;;;8.23;6.70;;;2.70;99.90;;;3.54;100.00;101281.16;4992857;28;20235;-62
2021/11/23 06:42:17;;;;;;;9.10;6.80;;;2.70;99.90;;;3.65;100.00;101280.97;4993700;28;20231;-63
2021/11/23 06:44:45;;;;;;;6.20;5.43;;;2.80;99.90;;;3.62;100.00;101289.25;4996792;28;20276;-64
2021/11/23 06:47:13;;;;;;;8.17;5.70;;;2.80;99.90;;;3.73;100.00;101289.06;4996744;28;20289;-63
2021/11/23 06:49:42;;;;;;;8.43;6.50;;;2.80;99.90;;;3.69;100.00;101290.34;4996629;28;20302;-63
2021/11/23 06:52:12;;;;;;;9.63;6.00;;;2.90;99.90;;;3.96;100.00;101297.50;4996778;28;20211;-63
2021/11/23 06:54:40;;;;;;;6.13;5.40;;;3.00;99.90;;;3.82;100.00;101288.19;4996705;28;20280;-63
2021/11/23 06:57:10;;;;;;;8.27;6.40;;;3.00;99.90;;;3.91;100.00;101294.44;4996515;28;20212;-64
2021/11/23 06:59:39;;;;;;;8.63;5.73;;;3.00;99.90;;;3.86;100.00;101294.06;4996594;28;20290;-63
2021/11/23 07:02:08;;;;;;;8.93;6.13;;;3.00;99.90;;;3.69;100.00;101295.66;4996065;28;20223;-63
2021/11/23 07:04:37;;;;;;;12.13;7.07;;;3.00;99.90;;;3.77;100.00;101297.59;4996436;28;20206;-62
2021/11/23 07:07:09;;;;;;;7.50;5.87;;;3.00;99.90;;;3.92;100.00;101304.97;4996519;28;20290;-64
2021/11/23 07:09:37;;;;;;;8.50;6.23;;;3.00;99.90;;;3.84;100.00;101306.69;4995442;28;20625;-75
2021/11/23 07:12:08;;;;;;;9.17;6.57;;;3.10;99.90;;;3.95;100.00;101312.66;4994698;28;20224;-74
2021/11/23 07:14:40;;;;;;;8.93;6.37;;;3.10;99.90;;;3.99;100.00;101321.19;4994655;28;20293;-72
2021/11/23 07:17:08;;;;;;;8.40;6.47;;;3.10;99.90;;;3.97;100.00;101318.69;4994867;28;20231;-73
2021/11/23 07:19:36;;;;;;;9.37;6.17;;;3.10;99.90;;;3.88;100.00;101322.22;4993485;28;20211;-74
2021/11/23 07:22:05;;;;;;;9.17;6.63;;;3.10;99.90;;;3.87;100.00;101325.03;4994174;28;20255;-70
2021/11/23 07:24:34;;;;;;;10.53;7.20;;;3.00;99.90;;;3.77;100.00;101317.09;4993469;28;20685;-74
2021/11/23 07:27:02;;;;;;;7.57;5.87;;;3.00;99.90;;;3.94;100.00;101316.28;4996459;28;20237;-73
2021/11/23 07:29:31;;;;;;;9.30;6.00;;;3.00;99.90;;;4.06;100.00;101323.09;4995679;28;20291;-73
2021/11/23 07:32:01;;;;;;;8.93;6.13;;;3.10;99.90;;;3.95;100.00;101325.13;4994622;28;20205;-72
2021/11/23 07:34:30;;;;;;;7.03;6.30;;;3.10;99.90;;;4.12;100.00;101329.66;4993432;28;20278;-67
2021/11/23 07:36:59;;;;;;;8.97;6.73;;;3.20;99.90;;;4.13;100.00;101329.50;4993177;28;20247;-69
2021/11/23 07:39:27;;;;;;;10.37;6.20;;;3.20;99.90;;;4.20;100.00;101329.75;4993114;28;20703;-59
2021/11/23 07:41:56;;;;;;;8.33;6.10;;;3.20;99.90;;;4.18;100.00;101321.91;4993069;28;20212;-61
2021/11/23 07:44:25;;;;;;;9.37;6.17;;;3.30;99.90;;;4.06;100.00;101325.75;4993012;28;20259;-63
2021/11/23 07:46:54;;;;;;;11.90;7.40;;;3.10;99.90;;;4.05;100.00;101323.25;4992638;28;20192;-61
2021/11/23 07:49:23;;;;;;;10.43;7.30;;;3.10;99.90;;;3.93;100.00;101330.63;4992694;28;20210;-63
2021/11/23 07:51:52;;;;;;;10.33;6.67;;;3.00;99.90;;;3.90;100.00;101333.59;4992530;28;20235;-63
2021/11/23 07:54:20;;;;;;;10.93;7.10;;;3.00;99.90;;;3.91;100.00;101345.91;4992475;28;20341;-63
2021/11/23 07:56:48;;;;;;;9.90;7.13;;;3.10;99.90;;;3.93;100.00;101329.75;4993251;28;20544;-63
2021/11/23 07:59:17;;;;;;;10.30;6.97;;;3.00;99.90;;;3.81;100.00;101325.63;4993251;28;20233;-62
2021/11/23 08:01:45;;;;;;;10.10;6.73;;;3.00;99.90;;;3.87;100.00;101331.22;4992667;28;20751;-63
2021/11/23 08:04:14;;;;;;;11.50;6.77;;;3.00;99.90;;;4.06;100.00;101331.09;4992394;28;20236;-61
2021/11/23 08:06:43;;;;;;;9.60;7.27;;;3.10;99.90;;;3.95;100.00;101325.97;4992417;28;20189;-60
2021/11/23 08:09:12;;;;;;;11.63;7.43;;;3.10;99.90;;;4.04;100.00;101327.75;4992642;28;20214;-64
2021/11/23 08:11:40;;;;;;;7.97;6.37;;;3.10;99.90;;;4.13;100.00;101329.50;4992566;28;20239;-64
2021/11/23 08:14:08;;;;;;;10.00;6.67;;;3.20;99.90;;;3.97;100.00;101331.16;4992204;28;20317;-61
2021/11/23 08:16:37;;;;;;;9.77;6.90;;;3.20;99.90;;;4.22;100.00;101331.28;4992046;28;20263;-62
2021/11/23 08:19:10;;;;;;;10.93;6.80;;;3.20;99.90;;;4.18;100.00;101334.41;4991999;28;20271;-63
2021/11/23 08:21:38;;;;;;;9.70;6.37;;;3.20;99.90;;;4.30;100.00;101333.19;4991343;28;20294;-62
2021/11/23 08:24:09;;;;;;;9.57;7.00;;;3.30;99.90;;;4.48;100.00;101334.06;4991453;28;20221;-64
2021/11/23 08:26:38;;;;;;;9.10;6.90;;;3.30;99.90;;;4.76;100.00;101338.34;4992034;28;20247;-64
2021/11/23 08:29:07;;;;;;;9.20;6.90;;;3.50;99.90;;;4.78;100.00;101333.69;4991870;28;20715;-65
2021/11/23 08:31:36;;;;;;;10.37;7.23;;;3.60;99.90;;;4.89;100.00;101350.28;4991749;28;20652;-65
2021/11/23 08:34:05;;;;;;;9.23;7.00;;;3.70;99.90;;;4.92;100.00;101344.66;4991794;28;20213;-74
2021/11/23 08:36:34;;;;;;;12.37;7.83;;;3.80;99.90;;;4.87;100.00;101348.78;4991574;28;20268;-60
2021/11/23 08:39:05;;;;;;;12.30;6.93;;;3.90;99.90;;;4.83;100.00;101356.25;4991863;28;20295;-61
2021/11/23 08:41:35;;;;;;;9.20;7.70;;;3.90;99.90;;;4.97;100.00;101347.69;4991763;28;20222;-62
2021/11/23 08:44:04;;;;;;;10.60;6.97;;;4.00;99.90;;;5.15;100.00;101342.34;4991593;28;20277;-63
2021/11/23 08:46:33;;;;;;;10.50;7.07;;;4.20;99.90;;;5.05;100.00;101352.28;4991453;28;20953;-59
2021/11/23 08:49:03;;;;;;;9.13;6.80;;;4.20;99.90;;;5.13;100.00;101354.16;4991276;28;20204;-59
2021/11/23 08:51:35;;;;;;;8.77;6.63;;;4.20;99.90;;;5.00;100.00;101354.56;4991379;28;20248;-59
2021/11/23 08:54:05;;;;;;;10.23;6.60;;;4.10;99.90;;;5.05;100.00;101352.28;4991381;28;20194;-60
2021/11/23 08:56:38;;;;;;;9.57;6.10;;;4.00;99.90;;;4.99;100.00;101356.38;4991087;28;20294;-61
2021/11/23 08:59:10;;;;;;;8.80;6.47;;;4.00;99.90;;;4.84;100.00;101362.41;4990706;28;20598;-59
2021/11/23 09:01:39;;;;;;;8.93;6.37;;;4.00;99.90;;;5.13;100.00;101357.66;4991717;28;20252;-60
2021/11/23 09:04:08;;;;;;;7.70;6.20;;;3.90;99.90;;;5.14;100.00;101356.69;4990865;28;20247;-57
2021/11/23 09:06:39;;;;;;;9.20;6.20;;;4.00;99.90;;;5.03;100.00;101354.25;4990465;28;20619;-56
2021/11/23 09:09:08;;;;;;;10.57;6.90;;;4.10;99.90;;;4.90;100.00;101357.31;4990866;28;20817;-57
2021/11/23 09:11:40;;;;;;;8.23;5.60;;;4.00;99.90;;;5.03;100.00;101350.72;4990842;28;20190;-61
2021/11/23 09:14:09;;;;;;;9.77;6.00;;;4.10;99.90;;;5.12;100.00;101353.34;4990273;28;20262;-57
2021/11/23 09:16:38;;;;;;;7.87;5.93;;;4.10;99.90;;;5.21;100.00;101348.91;4991083;28;20284;-59
2021/11/23 09:19:07;;;;;;;9.40;6.57;;;4.10;99.90;;;5.18;100.00;101350.03;4990320;28;20621;-60
2021/11/23 09:21:36;;;;;;;10.03;6.10;;;4.20;99.90;;;5.19;100.00;101351.72;4990726;28;20206;-61
2021/11/23 09:24:06;;;;;;;7.70;5.70;;;4.20;99.90;;;5.37;100.00;101357.00;4990562;28;20234;-60
2021/11/23 09:26:34;;;;;;;9.00;5.27;;;4.20;99.90;;;5.46;100.00;101358.75;4990889;28;20313;-60
2021/11/23 09:29:04;;;;;;;8.97;5.67;;;4.30;99.90;;;5.57;100.00;101359.31;4990764;28;20268;-59
2021/11/23 09:31:33;;;;;;;9.40;6.50;;;4.40;99.90;;;5.52;100.00;101364.28;4990836;28;20189;-64
2021/11/23 09:34:02;;;;;;;7.87;6.13;;;4.50;99.90;;;5.54;100.00;101366.81;4990859;28;20235;-64
2021/11/23 09:36:30;;;;;;;9.07;6.10;;;4.50;99.90;;;5.41;100.00;101364.53;4990597;28;20206;-65
2021/11/23 09:38:58;;;;;;;9.53;7.17;;;4.50;99.90;;;5.30;100.00;101366.63;4990718;28;20295;-64
2021/11/23 09:41:29;;;;;;;7.33;5.97;;;4.50;99.90;;;5.40;100.00;101360.22;4990789;28;20301;-63
2021/11/23 09:43:57;;;;;;;9.00;5.80;;;4.40;99.90;;;5.38;100.00;101353.34;4990630;28;20232;-60
2021/11/23 09:46:30;;;;;;;9.50;6.30;;;4.40;99.90;;;5.37;100.00;101351.66;4990262;28;20233;-60
2021/11/23 09:48:59;;;;;;;7.93;6.20;;;4.50;99.90;;;5.34;100.00;101352.84;4990134;28;20678;-61
2021/11/23 09:51:28;;;;;;;9.93;6.10;;;4.50;99.90;;;5.48;100.00;101354.91;4990428;28;20244;-67
2021/11/23 09:53:59;;;;;;;8.53;5.87;;;4.50;99.90;;;5.42;100.00;101354.69;4989989;28;20640;-61
2021/11/23 09:56:28;;;;;;;9.03;6.03;;;4.50;99.90;;;5.65;100.00;101361.22;4990446;28;20291;-60
2021/11/23 09:58:57;;;;;;;7.83;5.67;;;4.60;99.90;;;5.65;100.00;101359.34;4990101;28;20203;-60
2021/11/23 10:01:30;;;;;;;10.57;6.13;;;4.60;99.90;;;5.41;100.00;101361.06;4989950;28;20665;-60
2021/11/23 10:04:05;;;;;;;8.60;5.80;;;4.50;99.90;;;5.63;100.00;101349.84;4990122;28;20249;-61
2021/11/23 10:06:33;;;;;;;7.97;6.00;;;4.60;99.90;;;5.52;100.00;101350.94;4990408;28;20253;-60
2021/11/23 10:09:02;;;;;;;8.97;5.73;;;4.60;99.90;;;5.77;100.00;101349.22;4990343;28;20210;-59
2021/11/23 10:11:32;;;;;;;9.97;6.13;;;4.70;99.90;;;6.01;100.00;101355.56;4990289;28;20698;-60
2021/11/23 10:14:06;;;;;;;9.50;6.20;;;4.80;99.90;;;6.21;100.00;101355.31;4990170;28;20242;-60
2021/11/23 10:16:45;;;;;;;8.93;6.20;;;5.00;99.90;;;6.21;100.00;101345.44;4989943;28;20237;-61
2021/11/23 10:19:15;;;;;;;9.17;6.40;;;5.10;99.90;;;6.30;100.00;101349.81;4970435;28;20219;-64
2021/11/23 10:21:53;;;;;;;11.10;7.03;;;5.20;99.90;;;6.43;100.00;101352.03;4970739;28;20290;-63
2021/11/23 10:24:22;;;;;;;8.70;5.63;;;5.20;99.90;;;6.62;100.00;101343.69;4970314;28;20263;-61
2021/11/23 10:26:51;;;;;;;8.47;5.80;;;5.40;99.90;;;6.57;100.00;101346.03;4970646;28;20291;-61